x

8447387 - Borden Flats Light At Fall River, Ma (bltm3) Weather Station

7:30 - Mon 4th May 2015 All times are EDT. -4 hours from GMT.

  • Wind
    11mph, 14mph gusts
  • Aire Temp 51°f
  • Sea Pressure 1023.1mb
  • 8447387 - Borden Flats Light At Fall River, Ma
  • 8447387 - Borden Flats Light At Fall River, Ma

More Historic Weather Station data

Upgrade to MSW Pro to gain access to the past 30 days of data for over 8000 Wavebouys and Weather Stations around the globe.

Join Pro

Comparision Forecast

View Surf forecast
   
lun 05/04 7:30 11 14 mph 1023.1mb 51f
7:24 11 14 mph 1023.1mb 51f
7:18 9 11 mph 1023.1mb 51f
7:12 8 10 mph 1023.1mb 51f
7:06 8 10 mph 1023.1mb 51f
7:00 8 9 mph 1023mb 51f
6:54 7 8 mph 1022.9mb 51f
6:48 7 9 mph 1022.8mb 51f
6:42 8
mph
1022.8mb 51f
6:36 7 8 mph 1022.7mb 51f
6:30 7 8 mph 1022.7mb 51f
6:24 7 9 mph 1022.7mb 51f
6:18 6 8 mph 1022.6mb 51f
6:12 6 8 mph 1022.5mb 51f
6:06 6 8 mph 1022.5mb 51f
6:00 7 9 mph 1022.5mb 51f
5:54 6 8 mph 1022.5mb 51f
5:48 7 8 mph 1022.5mb 51f
5:42 6 7 mph 1022.4mb 51f
5:36 6 8 mph 1022.2mb 51f
5:30 8 10 mph 1022.2mb 51f
5:24 7 10 mph 1022.2mb 51f
5:18 7 9 mph 1022.2mb 51f
5:12 6 7 mph 1022.2mb 51f
5:06 7 9 mph 1022.1mb 51f
5:00 6 9 mph 1022.1mb 51f
4:54 3 5 mph 1022.1mb 51f
4:48 3 6 mph 1022mb 51f
4:42 2 3 mph 1022mb 51f
4:36 3 6 mph 1022mb 51f
4:30 6 8 mph 1021.9mb 51f
4:24 5 6 mph 1021.9mb 51f
4:18 6 8 mph 1021.9mb 51f
4:12 5 7 mph 1022mb 51f
4:06 7 9 mph 1021.9mb 51f
4:00 8 11 mph 1022mb 51f
3:54 7 10 mph 1022mb 51f
3:48 7 9 mph 1022mb 51f
3:42 8 9 mph 1021.9mb 51f
3:36 8 10 mph 1021.9mb 51f
3:30 8 10 mph 1021.9mb 51f
3:24 6 8 mph 1021.9mb 51f
3:18 6 7 mph 1021.9mb 51f
3:12 7 9 mph 1021.9mb 51f
3:06 6 8 mph 1022mb 51f
3:00 7 9 mph 1022mb 51f
2:54 8 10 mph 1021.9mb 51f
2:48 7 8 mph 1021.9mb 51f
2:42 7 10 mph 1021.9mb 51f
2:36 8 10 mph 1021.9mb 51f
2:30 7 8 mph 1022mb 51f
2:24 7 9 mph 1022mb 51f
2:18 7 9 mph 1021.9mb 51f
2:12 7 9 mph 1021.9mb 51f
2:06 7 9 mph 1021.9mb 51f
2:00 8 10 mph 1021.8mb 51f
1:54 7 9 mph 1021.8mb 51f
1:48 7 9 mph 1021.8mb 51f
1:42 8 10 mph 1021.8mb 51f
1:36 8 13 mph 1021.8mb 51f
1:30 8 11 mph 1021.8mb 51f
1:24 8 10 mph 1021.8mb 51f
1:18 7 10 mph 1021.8mb 51f
1:12 9 13 mph 1021.7mb 52f
1:06 9 13 mph 1021.7mb 52f
1:00 9 11 mph 1021.8mb 52f
12:54 10 14 mph 1021.8mb 52f
12:48 10 13 mph 1021.8mb 52f
12:42 11 14 mph 1021.7mb 52f
12:36 10 14 mph 1021.7mb 52f
12:30 10 15 mph 1021.7mb 52f
12:24 9 14 mph 1021.5mb 52f
12:18 11 14 mph 1021.6mb 52f
12:12 10 14 mph 1021.5mb 52f
12:06 11 16 mph 1021.5mb 52f
12:00 11 15 mph 1021.5mb 52f
dom 05/03 11:54 10 15 mph 1021.5mb 52f
11:48 10 13 mph 1021.5mb 51f
11:42 9 11 mph 1021.4mb 51f
11:36 10 15 mph 1021.5mb 51f
11:30 9 13 mph 1021.5mb 51f
11:24 9 11 mph 1021.5mb 51f
11:18 10 14 mph 1021.4mb 51f
11:12 10 15 mph 1021.3mb 51f
11:06 9 13 mph 1021.3mb 51f
11:00 9 14 mph 1021.2mb 51f
10:54 10 13 mph 1021.3mb 51f
10:48 10 14 mph 1021.3mb 52f
10:42 10 13 mph 1021.4mb 52f
10:36 14 17 mph 1021.2mb 52f
10:30 10 13 mph 1021.2mb 53f
10:24 10 13 mph 1021.2mb 52f
10:18 9 10 mph 1021.2mb 52f
10:12 6 10 mph 1021.3mb 52f
10:06 5 8 mph 1021.3mb 51f
10:00 6 8 mph 1021.2mb 51f
9:54 7 11 mph 1021.2mb 51f
9:48 8 11 mph 1021.2mb 51f
9:42 8 9 mph 1021.3mb 51f
9:36 9 11 mph 1021.5mb 51f
9:30 10 13 mph 1021.5mb 51f
9:24 10 13 mph 1021.3mb 51f
9:18 9 13 mph 1021.3mb 51f
9:12 9 13 mph 1021.3mb 51f
9:06 7 9 mph 1021.2mb 51f
9:00 6 10 mph 1021.2mb 51f
8:54 7 9 mph 1021mb 51f
8:48 7 9 mph 1021mb 51f
8:42 8 11 mph 1020.9mb 51f
8:36 8 11 mph 1020.9mb 51f
8:30 8 13 mph 1020.8mb 51f
8:24 8 13 mph 1020.7mb 51f
8:18 8 10 mph 1020.6mb 51f
8:12 8 13 mph 1020.6mb 51f
8:06 9 13 mph 1020.6mb 51f
8:00 9 13 mph 1020.5mb 51f
7:54 7 9 mph 1020.5mb 52f
7:48 8 10 mph 1020.4mb 52f
7:42 9 11 mph 1020.4mb 52f
7:36 10 13 mph 1020.4mb 52f
7:30 9 14 mph 1020.3mb 52f
7:24 10 15 mph 1020.2mb 52f
7:18 14 18 mph 1020mb 52f
7:12 11 14 mph 1020mb 52f
7:06 10 13 mph 1020.1mb 53f
7:00 11 15 mph 1019.9mb 53f
6:54 10 13 mph 1019.9mb 53f
6:48 10 14 mph 1019.8mb 53f
6:42 10 14 mph 1019.8mb 53f
6:36 10 14 mph 1019.8mb 53f
6:30 10 15 mph 1019.8mb 53f
6:24 14 17 mph 1019.7mb 53f
6:18 13 16 mph 1019.7mb 53f
6:12 13 15 mph 1019.8mb 53f
6:06 13 18 mph 1019.8mb 53f
6:00 14 20 mph 1019.6mb 53f
5:54 14 18 mph 1019.7mb 53f
5:48 14 17 mph 1019.7mb 53f
5:42 14 20 mph 1019.5mb 53f
5:36 16 23 mph 1019.5mb 53f
5:30 14 18 mph 1019.5mb 53f
5:24 15 22 mph 1019.4mb 53f
5:18 14 18 mph 1019.4mb 54f
5:12 16 22 mph 1019.4mb 54f
5:06 14 18 mph 1019.3mb 54f
5:00 13 16 mph 1019.3mb 54f
4:54 15 20 mph 1019.2mb 53f
4:48 16 22 mph 1019.1mb 53f
4:42 14 20 mph 1019.2mb 54f
4:36 13 21 mph 1019.2mb 54f
4:30 16 21 mph 1019mb 54f
4:24 17 22 mph 1019mb 53f
4:18 17 22 mph 1018.9mb 54f
4:12 15 20 mph 1019mb 54f
4:06 15 20 mph 1019mb 54f
4:00 16 22 mph 1019mb 54f
3:54 17 22 mph 1019mb 54f
3:48 16 21 mph 1018.9mb 54f
3:42 18 22 mph 1018.8mb 55f
3:36 17 20 mph 1018.9mb 55f
3:30 14 18 mph 1018.8mb 57f
3:24 15 18 mph 1018.8mb 57f
3:18 10 16 mph 1018.8mb 57f
3:12 11 15 mph 1018.8mb 58f
3:06 16 20 mph 1018.7mb 57f
3:00 16 18 mph 1018.7mb 57f
2:54 13 17 mph 1018.8mb 58f
2:48 13 16 mph 1018.8mb 59f
2:42 10 14 mph 1018.8mb 59f
2:36 11 16 mph 1018.7mb 59f
2:30 14 17 mph 1018.7mb 59f
2:24 13 15 mph 1018.7mb 58f
2:18 13 15 mph 1018.6mb 58f
2:12 15 18 mph 1018.6mb 58f
2:06 16 20 mph 1018.6mb 58f
2:00 14 18 mph 1018.6mb 58f
1:54 13 16 mph 1018.6mb 57f
1:48 13 15 mph 1018.5mb 58f
1:42 17 21 mph 1018.4mb 58f
1:36 14 18 mph 1018.4mb 56f
1:30 15 17 mph 1018.4mb 57f
1:24 16 17 mph 1018.4mb 57f
1:18 14 16 mph 1018.4mb 58f
1:12 15 18 mph 1018.3mb 58f
1:06 11 15 mph 1018.3mb 59f
1:00 15 17 mph 1018.2mb 59f
12:54 10 15 mph 1018.3mb 59f
12:48 13 14 mph 1018.2mb 59f
12:42 13 14 mph 1018.3mb 56f
12:36 11 15 mph 1018.3mb 54f
12:30 14 16 mph 1018.3mb 54f
12:24 14 16 mph 1018.3mb 54f
12:18 14 15 mph 1018.3mb 53f
12:12 14 15 mph 1018.4mb 53f
12:06 15
mph
1018.5mb 53f
12:00 17 18 mph 1018.4mb 53f
11:54 16 17 mph 1018.3mb 53f
11:48 17 18 mph 1018.2mb 53f
11:42 17 18 mph 1018.2mb 53f
11:36 17
mph
1018.1mb 53f
11:30 17 18 mph 1018.1mb 53f
11:24 17 18 mph 1018mb 53f
11:18 17 18 mph 1018mb 53f
11:12 15 16 mph 1018.1mb 52f
11:06 14 15 mph 1018.1mb 52f
11:00 13 14 mph 1018.1mb 52f
10:54 11
mph
1018.1mb 53f
10:48 11
mph
1018.2mb 54f
10:42 10
mph
1018.2mb 54f
10:36 10
mph
1018.2mb 54f
10:30 9
mph
1018.2mb 53f
10:24 10
mph
1018.2mb 53f
10:18 10 11 mph 1018.2mb 53f
10:12 9 10 mph 1018.1mb 53f
10:06 9 10 mph 1018.1mb 53f
10:00 9 11 mph 1018.2mb 53f
9:54 10 11 mph 1018.1mb 53f
9:48 11 13 mph 1018.1mb 53f
9:42 11 13 mph 1018.2mb 52f
9:36 10 13 mph 1018.1mb 52f
9:30 10 11 mph 1018.1mb 52f
9:24 10 11 mph 1018.1mb 52f
9:18 11 14 mph 1018.1mb 52f
9:12 10 13 mph 1018.1mb 52f
9:06 11 14 mph 1018.2mb 51f
9:00 10 11 mph 1018.3mb 51f
8:54 9 10 mph 1018.3mb 51f
8:48 10 11 mph 1018.3mb 51f
8:42 9 10 mph 1018.3mb 51f
8:36 9 10 mph 1018.3mb 51f
8:30 8 10 mph 1018.2mb 51f
8:24 8 9 mph 1018.2mb 50f
8:18 8 9 mph 1018.2mb 50f
8:12 8 9 mph 1018.2mb 50f
8:06 8 9 mph 1018.1mb 50f
8:00 9 10 mph 1018.1mb 50f
7:54 9 10 mph 1018mb 50f
7:48 9 10 mph 1017.9mb 50f
7:42 10 11 mph 1017.9mb 50f
7:36 9 11 mph 1017.8mb 50f
7:30 10 11 mph 1017.7mb 50f
7:24 11 14 mph 1017.7mb 50f
7:18 11 14 mph 1017.6mb 50f
7:12 13 14 mph 1017.5mb 50f
7:06 11 14 mph 1017.5mb 49f
7:00 10 14 mph 1017.5mb 49f
6:54 13 15 mph 1017.3mb 49f
6:48 13 14 mph 1017.2mb 49f
6:42 13 15 mph 1017.1mb 49f
6:36 11 14 mph 1017.1mb 49f
6:30 13 14 mph 1017.1mb 49f
6:24 11 14 mph 1017mb 49f
6:18 13 14 mph 1017mb 49f
6:12 11 14 mph 1017mb 49f
6:06 11 14 mph 1016.9mb 49f
6:00 10 13 mph 1016.9mb 49f
5:54 9 10 mph 1016.9mb 49f
5:48 10 11 mph 1016.9mb 48f
5:42 10 13 mph 1016.9mb 49f
5:36 9 10 mph 1016.8mb 49f
5:30 8 9 mph 1016.8mb 48f
5:24 8 10 mph 1016.8mb 48f
5:18 9 10 mph 1016.8mb 48f
5:12 9 10 mph 1016.8mb 48f
5:06 9 10 mph 1016.7mb 48f
5:00 8 10 mph 1016.6mb 48f
4:54 7 8 mph 1016.6mb 48f
4:48 6 8 mph 1016.6mb 48f
4:42 8 9 mph 1016.6mb 48f
4:36 8 10 mph 1016.6mb 48f
4:30 10
mph
1016.5mb 48f
4:24 7 9 mph 1016.5mb 47f
4:18 7 8 mph 1016.5mb 47f
4:12 8 9 mph 1016.5mb 47f
4:06 7 8 mph 1016.5mb 47f
4:00 6 8 mph 1016.5mb 47f
3:54 8 9 mph 1016.4mb 47f
3:48 8 9 mph 1016.3mb 47f
3:42 8 9 mph 1016.3mb 47f
3:36 10
mph
1016.3mb 47f
3:30 10 11 mph 1016.3mb 47f
3:24 10 11 mph 1016.3mb 47f
3:18 10 11 mph 1016.3mb 47f
3:12 10 11 mph 1016.3mb 47f
3:06 9 11 mph 1016.3mb 47f
3:00 8 10 mph 1016.3mb 47f
2:54 9 10 mph 1016.4mb 47f
2:48  -  mph - 47f
2:42  -  mph - 47f
2:36  -  mph - 47f
2:30 9 11 mph 1016.3mb 47f
2:24 9 11 mph 1016.3mb 47f
2:18 10 11 mph 1016.3mb 47f
2:12 10 13 mph 1016.4mb 47f
2:06 9 10 mph 1016.5mb 47f
2:00 8 9 mph 1016.6mb 46f
1:54 7 9 mph 1016.5mb 46f
1:48 8 9 mph 1016.6mb 47f
1:42 8 9 mph 1016.6mb 47f
1:36 7 8 mph 1016.6mb 46f
1:30 6 8 mph 1016.6mb 46f
1:24 7 8 mph 1016.6mb 47f
1:18 8 9 mph 1016.5mb 47f
1:12 8 9 mph 1016.6mb 47f
1:06 9 10 mph 1016.6mb 47f
1:00 9 10 mph 1016.6mb 47f
12:54 10 11 mph 1016.6mb 47f
12:48 9 10 mph 1016.6mb 47f
12:42 9 10 mph 1016.5mb 47f
12:36 9 10 mph 1016.6mb 47f
12:30 10 11 mph 1016.6mb 47f
12:24 9 10 mph 1016.5mb 47f
12:18 9 10 mph 1016.5mb 47f
12:12 8 9 mph 1016.5mb 47f
12:06 8 9 mph 1016.5mb 47f
12:00 9 10 mph 1016.5mb 47f
sáb 05/02 11:54 10 11 mph 1016.5mb 47f
11:48 10 11 mph 1016.5mb 47f
11:42 10
mph
1016.4mb 47f
11:36 10 11 mph 1016.4mb 47f
11:30 9 10 mph 1016.5mb 47f
11:24 9 10 mph 1016.5mb 47f
11:18 7 8 mph 1016.5mb 47f
11:12 7 8 mph 1016.5mb 47f
11:06 7 9 mph 1016.6mb 47f
11:00 9 10 mph 1016.3mb 47f
10:54 8 10 mph 1016.4mb 47f
10:48 8 9 mph 1016.3mb 47f
10:42 8 9 mph 1016.4mb 47f
10:36 8 9 mph 1016.4mb 46f
10:30 7 8 mph 1016.4mb 46f
10:24 6 8 mph 1016.4mb 46f
10:18 6 8 mph 1016.4mb 46f
10:12 6 7 mph 1016.4mb 46f
10:06 7 8 mph 1016.4mb 46f
10:00 6 7 mph 1016.4mb 46f
9:54 6 7 mph 1016.3mb 47f
9:48 5 6 mph 1016.3mb 46f
9:42 6 8 mph 1016.3mb 46f
9:36 6 8 mph 1016.2mb 46f
9:30 5 7 mph 1016.2mb 46f
9:24 7 9 mph 1016.2mb 46f
9:18 8 9 mph 1016.2mb 46f
9:12 8 10 mph 1016.2mb 46f
9:06 8 9 mph 1016.2mb 46f
9:00 7 8 mph 1016.1mb 47f
8:54 6 8 mph 1016.1mb 46f
8:48 8 11 mph 1016.1mb 46f
8:42 9 11 mph 1016mb 47f
8:36 8 10 mph 1016.1mb 47f
8:30 8 10 mph 1016mb 47f
8:24 9 13 mph 1016mb 47f
8:18 9 11 mph 1015.9mb 47f
8:12 9 13 mph 1015.8mb 47f
8:06 8 10 mph 1015.7mb 47f
8:00 8 10 mph 1015.6mb 47f
7:54 10 14 mph 1015.5mb 47f
7:48 11 14 mph 1015.4mb 48f
7:42 11 14 mph 1015.3mb 48f
7:36 10 13 mph 1015.2mb 49f
7:30 11 14 mph 1015.1mb 49f
7:24 11 13 mph 1015mb 49f
7:18 14 17 mph 1014.9mb 49f
7:12 16 17 mph 1014.9mb 49f
7:06 16 18 mph 1014.8mb 49f
7:00 16 18 mph 1014.6mb 49f
6:54 15 16 mph 1014.5mb 50f
6:48 15 16 mph 1014.4mb 50f
6:42 17 18 mph 1014.3mb 49f
6:36 18 20 mph 1014.2mb 50f
6:30 20 21 mph 1014.2mb 49f
6:24 20 22 mph 1014.1mb 49f
6:18 20 22 mph 1014.1mb 50f
6:12 20 23 mph 1014mb 50f
6:06 20 22 mph 1014mb 50f
6:00 18 21 mph 1013.9mb 50f
5:54 18 21 mph 1013.9mb 50f
5:48 21 22 mph 1013.9mb 50f
5:42 20 21 mph 1013.7mb 51f
5:36 20 23 mph 1013.7mb 51f
5:30 16 18 mph 1013.7mb 51f
5:24 17 20 mph 1013.7mb 51f
5:18 16 17 mph 1013.9mb 51f
5:12 13 17 mph 1013.9mb 52f
5:06 13 15 mph 1013.8mb 53f
5:00 13 15 mph 1013.8mb 53f
4:54 11 14 mph 1013.7mb 53f
4:48 7 9 mph 1013.6mb 53f
4:42 8 11 mph 1013.6mb 52f
4:36 10 14 mph 1013.5mb 52f
4:30 9 13 mph 1013.6mb 52f
4:24 11 14 mph 1013.6mb 51f
4:18 14 15 mph 1013.6mb 52f
4:12 14 17 mph 1013.6mb 51f
4:06 16 18 mph 1013.7mb 50f
4:00 17 18 mph 1013.7mb 51f
3:54 18 20 mph 1013.7mb 51f
3:48 18 21 mph 1013.7mb 51f
3:42 20 21 mph 1013.7mb 51f
3:36 18 20 mph 1013.8mb 51f
3:30 17 18 mph 1013.7mb 52f
3:24 16 17 mph 1013.7mb 52f
3:18 15 17 mph 1013.7mb 51f
3:12 15 16 mph 1013.8mb 52f
3:06 15 16 mph 1013.8mb 52f
3:00 16 17 mph 1013.9mb 52f
2:54 17 18 mph 1013.9mb 52f
2:48 15 17 mph 1014mb 52f
2:42 15
mph
1014.2mb 52f
2:36 15
mph
1014.3mb 53f
2:30 16
mph
1014.3mb 53f
2:24 15 17 mph 1014.3mb 53f
2:18 16
mph
1014.2mb 52f
2:12 15 16 mph 1014.3mb 52f
2:06 16 18 mph 1014.3mb 52f
2:00 16
mph
1014.3mb 52f
1:54 17
mph
1014.4mb 52f
1:48 17 18 mph 1014.4mb 52f
1:42 16 17 mph 1014.5mb 52f
1:36 14 17 mph 1014.5mb 52f
1:30 11 14 mph 1014.6mb 53f
1:24 9 11 mph 1014.7mb 53f
1:18 10 14 mph 1014.6mb 53f
1:12 8 13 mph 1014.7mb 54f
1:06 6 8 mph 1014.8mb 56f
1:00 6
mph
1014.9mb 62f
12:54 6 8 mph 1014.9mb 61f
12:48 7 9 mph 1015mb 60f
12:42 6 7 mph 1015mb 60f
12:36 8 11 mph 1015mb 59f
12:30 6 7 mph 1015mb 59f
12:24 7 10 mph 1015.1mb 58f
12:18 7 9 mph 1015.1mb 58f
12:12 8 10 mph 1015.2mb 58f
12:06 6 8 mph 1015.2mb 59f
12:00 5 8 mph 1015.3mb 58f
11:54 6 7 mph 1015.4mb 58f
11:48 7 9 mph 1015.4mb 57f
11:42 5 6 mph 1015.4mb 56f
11:36 5 6 mph 1015.4mb 53f
11:30 1 3 mph 1015.5mb 51f
11:24 1 3 mph 1015.5mb 51f
11:18  -  2 mph 1015.5mb 50f
11:12 3 5 mph 1015.5mb 49f
11:06 3 5 mph 1015.5mb 49f
11:00 3 5 mph 1015.5mb 49f
10:54 3 5 mph 1015.5mb 49f
10:48 3 6 mph 1015.5mb 49f
10:42 2 3 mph 1015.5mb 49f
10:36 3 6 mph 1015.5mb 48f
10:30 3 7 mph 1015.5mb 50f
10:24  -  1 mph 1015.5mb 51f
10:18 1 2 mph 1015.6mb 51f
10:12 3 5 mph 1015.6mb 51f
10:06 6
mph
1015.6mb 50f
10:00 6 7 mph 1015.5mb 50f
9:54 5 6 mph 1015.5mb 49f
9:48 3 5 mph 1015.5mb 49f
9:42 3 5 mph 1015.6mb 48f
9:36 2 5 mph 1015.6mb 48f
9:30 6
mph
1015.7mb 47f
9:24 5 7 mph 1015.7mb 47f
9:18 5
mph
1015.8mb 47f
9:12 2 5 mph 1015.9mb 46f
9:06 5
mph
1015.9mb 46f
9:00 3 5 mph 1016mb 45f
8:54 3 6 mph 1016mb 45f
8:48 2 5 mph 1016mb 44f
8:42 6
mph
1016mb 44f
8:36 6 8 mph 1016.1mb 43f
8:30 6 9 mph 1016mb 43f
8:24 7 8 mph 1016mb 43f
8:18 6 8 mph 1016.1mb 42f
8:12 6
mph
1016.1mb 42f
8:06 6 8 mph 1016.2mb 42f
8:00 6 7 mph 1016.1mb 42f
7:54 5 7 mph 1016.1mb 42f
7:48 6 9 mph 1016.1mb 42f
7:42 5 6 mph 1016.1mb 42f
7:36 5 8 mph 1016mb 42f
7:30 5 6 mph 1015.9mb 41f
7:24 5 7 mph 1016mb 41f
7:18 3 5 mph 1016mb 41f
7:12 6 7 mph 1015.9mb 41f
7:06 6 8 mph 1015.9mb 41f
7:00 6 7 mph 1016mb 41f
6:54 3 6 mph 1016mb 41f
6:48 6 8 mph 1015.9mb 41f
6:42 5 7 mph 1015.8mb 41f
6:36 3 6 mph 1015.8mb 40f
6:30 6 7 mph 1015.7mb 40f
6:24 3 6 mph 1015.7mb 40f
6:18 7 9 mph 1015.6mb 40f
6:12 6 8 mph 1015.6mb 40f
6:06 7 8 mph 1015.6mb 40f
6:00 8 9 mph 1015.5mb 41f
5:54 7 9 mph 1015.4mb 41f
5:48 5 7 mph 1015.4mb 41f
5:42 5 8 mph 1015.3mb 41f
5:36 6 7 mph 1015.2mb 41f
5:30 7 8 mph 1015.2mb 41f
5:24 6 7 mph 1015.2mb 41f
5:18 6 8 mph 1015.1mb 41f
5:12 7 9 mph 1015mb 41f
5:06 5 6 mph 1015mb 41f
5:00 6 7 mph 1015.1mb 41f
4:54 3 5 mph 1015.1mb 40f
4:48 3 6 mph 1015.1mb 40f
4:42 3 6 mph 1015.2mb 40f
4:36 5 7 mph 1015.2mb 40f
4:30 5 6 mph 1015.2mb 41f
4:24 5 6 mph 1015.1mb 41f
4:18 3 5 mph 1015.1mb 40f
4:12 7 9 mph 1015mb 41f
4:06 6 7 mph 1015mb 41f
4:00 6 8 mph 1015mb 41f
3:54 6 8 mph 1014.9mb 41f
3:48 6 8 mph 1014.8mb 41f
3:42 7 8 mph 1014.8mb 40f
3:36 8 10 mph 1014.7mb 41f
3:30 6 8 mph 1014.7mb 41f
3:24 7 9 mph 1014.8mb 40f
3:18 6 9 mph 1014.8mb 40f
3:12 7 9 mph 1014.8mb 40f
3:06 7 9 mph 1014.8mb 40f
3:00 6 8 mph 1014.8mb 40f
2:54 8 9 mph 1014.8mb 40f
2:48 7 10 mph 1014.8mb 40f
2:42 10 13 mph 1014.8mb 40f
2:36 9 11 mph 1014.7mb 40f
2:30 8 10 mph 1014.7mb 41f
2:24 7 10 mph 1014.8mb 40f
2:18 8 9 mph 1014.8mb 41f
2:12 7 8 mph 1015mb 41f
2:06 6 8 mph 1015.1mb 41f
2:00 6 8 mph 1015.1mb 41f
1:54 6 8 mph 1015.1mb 41f
1:48 7 8 mph 1015mb 41f
1:42 7 8 mph 1015mb 41f
1:36 6 7 mph 1015.1mb 41f
1:30 6 7 mph 1015.2mb 41f
1:24 7 8 mph 1015.2mb 41f
1:18 7 9 mph 1015.3mb 41f
1:12 6 7 mph 1015.4mb 41f
1:06 7 8 mph 1015.4mb 41f
1:00 7 8 mph 1015.5mb 41f
12:54 7 8 mph 1015.4mb 41f
12:48 6 9 mph 1015.4mb 42f
12:42 7 8 mph 1015.3mb 41f
12:36 7 8 mph 1015.3mb 41f
12:30 7 9 mph 1015.3mb 42f
12:24 7 8 mph 1015.4mb 42f
12:18 7 9 mph 1015.5mb 42f
12:12 6 7 mph 1015.5mb 42f
12:06 7 8 mph 1015.4mb 42f
12:00 8 10 mph 1015.5mb 42f
vie 05/01 11:54 7 9 mph 1015.5mb 42f
11:48 8 9 mph 1015.4mb 42f
11:42 7 8 mph 1015.4mb 42f
11:36 7 8 mph 1015.4mb 42f
11:30 6 8 mph 1015.3mb 42f
11:24 7 8 mph 1015.3mb 43f
11:18 6 7 mph 1015.4mb 43f
11:12 6
mph
1015.5mb 43f
11:06 5 6 mph 1015.5mb 43f
11:00 5 7 mph 1015.5mb 43f
10:54 3 6 mph 1015.6mb 43f
10:48 6
mph
1015.6mb 43f
10:42 6 8 mph 1015.5mb 43f
10:36 6 8 mph 1015.6mb 43f
10:30 7 8 mph 1015.5mb 44f
10:24 6 7 mph 1015.6mb 44f
10:18 7 8 mph 1015.6mb 44f
10:12 7 9 mph 1015.6mb 44f
10:06 8 10 mph 1015.6mb 44f
10:00 8 10 mph 1015.6mb 44f
9:54 9 10 mph 1015.5mb 45f
9:48 9 11 mph 1015.5mb 45f
9:42 10 11 mph 1015.5mb 46f
9:36 8 9 mph 1015.5mb 46f
9:30 8 10 mph 1015.5mb 46f
9:24 7 9 mph 1015.5mb 47f
9:18 7 9 mph 1015.5mb 47f
9:12 6 8 mph 1015.4mb 47f
9:06 6 8 mph 1015.4mb 47f
9:00 6 7 mph 1015.4mb 47f
8:54 6 7 mph 1015.3mb 47f
8:48 7 8 mph 1015.2mb 48f
8:42 7 8 mph 1015.1mb 48f
8:36 6 7 mph 1015.1mb 48f
8:30 6 7 mph 1015.1mb 48f
8:24 7 8 mph 1015.1mb 48f
8:18 7 8 mph 1015.2mb 48f
8:12 8 10 mph 1015.1mb 49f
8:06 8 9 mph 1015mb 49f
8:00 8 10 mph 1014.9mb 49f
7:54 8 9 mph 1014.8mb 49f
7:48 8 9 mph 1014.8mb 49f
7:42 7 10 mph 1014.7mb 49f
7:36 8 10 mph 1014.6mb 49f
7:30 8 11 mph 1014.5mb 49f
7:24 11 14 mph 1014.4mb 49f
7:18 10 14 mph 1014.4mb 50f
7:12 9 13 mph 1014.4mb 50f
7:06 10 14 mph 1014.3mb 50f
7:00 10 14 mph 1014.3mb 51f
6:54 13 14 mph 1014.2mb 52f
6:48 14 17 mph 1014.2mb 52f
6:42 14 17 mph 1014.1mb 53f
6:36 13 17 mph 1014mb 54f
6:30 14 18 mph 1013.9mb 54f
6:24 14 16 mph 1013.9mb 54f
6:18 14 18 mph 1013.8mb 54f
6:12 14 17 mph 1013.7mb 54f
6:06 15 18 mph 1013.7mb 54f
6:00 17 18 mph 1013.7mb 54f
5:54 16 18 mph 1013.7mb 55f
5:48 16 18 mph 1013.8mb 55f
5:42 17 20 mph 1013.8mb 55f
5:36 15 18 mph 1013.8mb 55f
5:30 15 20 mph 1013.9mb 55f
5:24 15 18 mph 1013.9mb 55f
5:18 16 18 mph 1013.9mb 55f
5:12 14 17 mph 1013.9mb 55f
5:06 15 17 mph 1013.9mb 55f
5:00 14 17 mph 1013.9mb 55f
4:54 15 17 mph 1013.9mb 56f
4:48 11 14 mph 1014mb 56f
4:42 13 16 mph 1013.9mb 56f
4:36 13 17 mph 1014mb 56f
4:30 13 16 mph 1014mb 56f
4:24 14 16 mph 1014mb 56f
4:18 14 17 mph 1014mb 56f
4:12 9 15 mph 1014.1mb 55f
4:06 14 18 mph 1014.1mb 55f
4:00 14 16 mph 1014.1mb 55f
3:54 14 16 mph 1014.1mb 55f
3:48 10 14 mph 1014.2mb 56f
3:42 13 17 mph 1014.3mb 55f
3:36 10 14 mph 1014.4mb 55f
3:30 11 14 mph 1014.4mb 55f
3:24 10 14 mph 1014.4mb 55f
3:18 15 18 mph 1014.4mb 54f
3:12 14 16 mph 1014.4mb 54f
3:06 14 17 mph 1014.4mb 54f
3:00 15 20 mph 1014.5mb 54f
2:54 11 15 mph 1014.6mb 54f
2:48 11 15 mph 1014.6mb 54f
2:42 14 15 mph 1014.7mb 53f
2:36 13 15 mph 1014.8mb 54f
2:30 11 17 mph 1014.9mb 53f
2:24 15 17 mph 1014.8mb 53f
2:18 13 16 mph 1015mb 52f
2:12 13 16 mph 1015mb 52f
2:06 11 14 mph 1015.1mb 53f
2:00 9 13 mph 1015.1mb 52f
1:54 11 15 mph 1015.2mb 52f
1:48 11 15 mph 1015.2mb 51f
1:42 13 16 mph 1015.2mb 52f
1:36 10 13 mph 1015.2mb 51f
1:30 10 13 mph 1015.1mb 51f
1:24 14 17 mph 1015.1mb 51f
1:18 10 14 mph 1015.2mb 51f
1:12 11 14 mph 1015.2mb 51f
1:06 13 15 mph 1015.2mb 51f
1:00 13 16 mph 1015.2mb 51f
12:54 13 15 mph 1015.2mb 51f
12:48 11 14 mph 1015.3mb 50f
12:42 11 15 mph 1015.3mb 50f
12:36 10 13 mph 1015.3mb 50f
12:30 10 14 mph 1015.3mb 50f
12:24 10 14 mph 1015.3mb 50f
12:18 11 15 mph 1015.3mb 50f
12:12 9 13 mph 1015.4mb 50f
12:06 10 13 mph 1015.4mb 49f
12:00 15 17 mph 1015.5mb 49f
11:54 14 16 mph 1015.5mb 49f
11:48 14 16 mph 1015.5mb 49f
11:42 14 16 mph 1015.4mb 49f
11:36 14 17 mph 1015.4mb 49f
11:30 14 16 mph 1015.3mb 49f
11:24 11 15 mph 1015.3mb 49f
11:18 13 15 mph 1015.3mb 49f
11:12 13 16 mph 1015.4mb 49f
11:06 14 17 mph 1015.3mb 49f
11:00 13 16 mph 1015.3mb 49f
10:54 14 16 mph 1015.3mb 49f
10:48 14 16 mph 1015.1mb 49f
10:42 14 18 mph 1015.1mb 49f
10:36 15 18 mph 1015mb 49f
10:30 16 20 mph 1015mb 48f
10:24 16 20 mph 1014.9mb 48f
10:18 15 18 mph 1014.9mb 48f
10:12 15 17 mph 1014.9mb 48f
10:06 16 18 mph 1014.9mb 48f
10:00 16 20 mph 1014.9mb 48f
9:54 13 17 mph 1015mb 48f
9:48 13 17 mph 1015mb 48f
9:42 14 17 mph 1014.9mb 48f
9:36 13 17 mph 1015mb 47f
9:30 15 17 mph 1015mb 47f
9:24 14 16 mph 1015mb 47f
9:18 11 15 mph 1015mb 47f
9:12 10 15 mph 1015.1mb 47f
9:06 13 15 mph 1015.1mb 47f
9:00 11 14 mph 1015mb 46f
8:54 13 15 mph 1015mb 46f
8:48 11 14 mph 1015mb 46f
8:42 13 16 mph 1015mb 46f
8:36 11 14 mph 1015mb 46f
8:30 13 15 mph 1015mb 46f
8:24 11 15 mph 1015mb 46f
8:18 13 14 mph 1014.9mb 46f
8:12 13 14 mph 1015mb 46f
8:06 13 16 mph 1014.9mb 46f
8:00 14 17 mph 1014.9mb 46f
7:54 15 18 mph 1014.9mb 46f
7:48 11 14 mph 1014.9mb 46f
7:42 14 18 mph 1014.8mb 46f
7:36 14 15 mph 1014.8mb 46f
7:30 14 16 mph 1014.8mb 46f
7:24 13 16 mph 1014.9mb 46f
7:18 10 13 mph 1014.9mb 45f
7:12 10 14 mph 1014.9mb 45f
7:06 9 11 mph 1014.9mb 45f
7:00 8 13 mph 1014.9mb 45f
6:54 8 9 mph 1014.8mb 45f
6:48 9 11 mph 1014.8mb 45f
6:42 10 15 mph 1014.7mb 45f
6:36 8 14 mph 1014.6mb 45f
6:30 11 15 mph 1014.6mb 45f
6:24 11 14 mph 1014.4mb 45f
6:18 10 14 mph 1014.4mb 45f
6:12 10 13 mph 1014.3mb 45f
6:06 9 10 mph 1014.3mb 45f
6:00 10 15 mph 1014.1mb 45f
5:54 11 15 mph 1014.1mb 45f
5:48 10 11 mph 1014.1mb 45f
5:42 10 11 mph 1014.1mb 45f
5:36 11 14 mph 1014.1mb 45f
5:30 10 14 mph 1014.1mb 45f
5:24 9 14 mph 1014mb 45f
5:18 8 11 mph 1014mb 44f
5:12 8 10 mph 1013.9mb 44f
5:06 8 10 mph 1013.9mb 45f
5:00 10 14 mph 1013.8mb 44f
4:54 10 13 mph 1013.8mb 44f
4:48 11 15 mph 1013.7mb 44f
4:42 13 14 mph 1013.7mb 44f
4:36 10 13 mph 1013.6mb 44f
4:30 11 15 mph 1013.6mb 44f
4:24 13 15 mph 1013.6mb 45f
4:18 11 14 mph 1013.7mb 45f
4:12 9 11 mph 1013.8mb 45f
4:06 9 11 mph 1013.8mb 45f
4:00 9 13 mph 1013.8mb 45f
3:54 10 13 mph 1013.8mb 45f
3:48 9 13 mph 1013.8mb 45f
3:42 10 14 mph 1013.7mb 44f
3:36 10 13 mph 1013.6mb 45f
3:30 13 15 mph 1013.6mb 45f
3:24 11 14 mph 1013.6mb 45f
3:18 13 17 mph 1013.5mb 45f
3:12 13 16 mph 1013.5mb 45f
3:06 13 17 mph 1013.5mb 45f
3:00 14 16 mph 1013.4mb 45f
2:54 14 16 mph 1013.4mb 45f
2:48 14 17 mph 1013.5mb 45f
2:42 11 14 mph 1013.6mb 45f
2:36 13 15 mph 1013.5mb 45f
2:30 11 14 mph 1013.6mb 45f
2:24 11 14 mph 1013.6mb 45f
2:18 11 16 mph 1013.6mb 46f
2:12 11 14 mph 1013.6mb 46f
2:06 11 15 mph 1013.7mb 46f
2:00 11 14 mph 1013.8mb 46f
1:54 10 11 mph 1013.8mb 46f
1:48 10 14 mph 1013.8mb 46f
1:42 9 10 mph 1013.8mb 46f
1:36 9 11 mph 1013.8mb 46f
1:30 9 10 mph 1013.8mb 47f
1:24 7 9 mph 1013.9mb 47f
1:18 8 10 mph 1013.9mb 47f
1:12 8 9 mph 1013.9mb 47f
1:06 7 9 mph 1013.8mb 47f
1:00 7 8 mph 1013.8mb 47f
12:54 7 9 mph 1013.8mb 47f
12:48 7 8 mph 1013.8mb 47f
12:42 8 9 mph 1013.9mb 47f
12:36 7 10 mph 1013.9mb 48f
12:30 9 10 mph 1013.9mb 48f
12:24 9 11 mph 1013.9mb 48f
12:18 7 9 mph 1013.8mb 48f
12:12 8 10 mph 1013.7mb 48f
12:06 9 11 mph 1013.8mb 48f
12:00 10 13 mph 1013.7mb 49f
jue 04/30 11:54 10 13 mph 1013.8mb 49f
11:48 7 9 mph 1013.8mb 49f
11:42 8 10 mph 1013.7mb 49f
11:36 8 9 mph 1013.7mb 49f
11:30 9 10 mph 1013.6mb 49f
11:24 8 9 mph 1013.6mb 49f
11:18 8 9 mph 1013.6mb 49f
11:12 8 10 mph 1013.5mb 49f
11:06 7 8 mph 1013.4mb 49f
11:00 7 8 mph 1013.3mb 49f
10:54 8 10 mph 1013.4mb 49f
10:48 6 7 mph 1013.4mb 49f
10:42 6 7 mph 1013.5mb 49f
10:36 7 8 mph 1013.4mb 49f
10:30 7 8 mph 1013.4mb 49f
10:24 5 7 mph 1013.4mb 49f
10:18 5 6 mph 1013.4mb 49f
10:12 6 9 mph 1013.5mb 50f
10:06 6 8 mph 1013.5mb 50f
10:00 8 10 mph 1013.5mb 50f
9:54 6 7 mph 1013.5mb 50f
9:48 6 8 mph 1013.4mb 50f
9:42 10 13 mph 1013.4mb 50f
9:36 10 13 mph 1013.4mb 50f
9:30 8 11 mph 1013.3mb 50f
9:24 9 13 mph 1013.3mb 50f
9:18 8 10 mph 1013.2mb 50f
9:12 9 13 mph 1013.2mb 51f
9:06 11 14 mph 1013.1mb 51f
9:00 11 14 mph 1013.1mb 51f
8:54 11 15 mph 1013mb 51f
8:48 10 14 mph 1012.9mb 51f
8:42 11 14 mph 1012.6mb 52f
8:36 13 16 mph 1012.5mb 52f
8:30 11 15 mph 1012.5mb 52f
8:24 10 13 mph 1012.4mb 52f
8:18 8 10 mph 1012.3mb 52f
8:12 10 11 mph 1012.2mb 52f
8:06 8 10 mph 1012.1mb 52f
8:00 10 13 mph 1012.1mb 53f
7:54 9 11 mph 1012.1mb 53f
7:48 9 13 mph 1011.9mb 53f
7:42 9 13 mph 1011.7mb 53f
7:36 8 11 mph 1011.6mb 53f
7:00 8 10 mph 1011.2mb 53f
6:54 9 11 mph 1011.2mb 53f
6:48 8 10 mph 1011.1mb 53f
6:42 6 9 mph 1011.1mb 53f
6:36 7 9 mph 1011mb 53f
6:30 6 8 mph 1011mb 53f
6:24 7 9 mph 1010.9mb 54f
6:18 6 8 mph 1010.8mb 53f
6:12 6 9 mph 1010.7mb 54f
6:06 7 10 mph 1010.7mb 54f
6:00 7 9 mph 1010.6mb 54f
5:54 7 9 mph 1010.5mb 54f
5:48 10 11 mph 1010.5mb 54f
5:42 8 10 mph 1010.5mb 54f
5:36 8 13 mph 1010.4mb 55f
5:30 9 13 mph 1010.3mb 55f
5:24 10 14 mph 1010.2mb 55f
5:18 9 11 mph 1010.2mb 55f
5:12 8 10 mph 1010.1mb 55f
5:06 11 14 mph 1010.1mb 55f
5:00 10 14 mph 1010.1mb 55f
4:54 11 15 mph 1010.1mb 55f
4:48 10 14 mph 1010.1mb 55f
4:42 10 14 mph 1010mb 55f
4:36 9 13 mph 1010mb 55f
4:30 10 13 mph 1010.1mb 55f
4:24 11 14 mph 1010mb 55f
4:18 13 14 mph 1010mb 55f
4:12 11 14 mph 1009.9mb 55f
4:06 13 14 mph 1009.9mb 55f
4:00 13 17 mph 1009.8mb 55f
3:54 13 17 mph 1009.7mb 55f
3:48 11 15 mph 1009.6mb 56f
3:42 7 9 mph 1009.6mb 55f
3:36 7 9 mph 1009.5mb 55f
3:30 8 10 mph 1009.6mb 55f
3:24 9 13 mph 1009.5mb 55f
2:42 3 6 mph 1009.7mb 57f
2:36 6 9 mph 1009.7mb 56f
2:30  -  1 mph 1009.8mb 56f
2:24 1 2 mph 1009.8mb 56f
2:18 2 3 mph 1009.9mb 56f
2:12 2 5 mph 1009.9mb 55f
2:06 6 7 mph 1009.9mb 54f
2:00 8 9 mph 1009.9mb 54f
1:54 9 10 mph 1009.9mb 53f
1:48 10
mph
1009.9mb 53f
1:42 11 14 mph 1009.8mb 53f
1:36 9 10 mph 1009.8mb 54f
1:30 10 11 mph 1009.8mb 53f
1:24 9 10 mph 1009.8mb 54f
1:18 2 6 mph 1010mb 55f
1:12 5 6 mph 1010mb 55f
1:06 7 10 mph 1009.9mb 58f
1:00 8 9 mph 1009.9mb 58f
12:54 7 13 mph 1009.9mb 58f
12:48 8 9 mph 1009.9mb 58f
12:42 7 8 mph 1010mb 57f
12:36 8 11 mph 1010.1mb 57f
12:30 8 10 mph 1010.1mb 56f
12:24 9 10 mph 1010.1mb 56f
12:18 8 10 mph 1010.1mb 56f
12:12 6 8 mph 1010.2mb 57f